sensor_id;sensor_type;location;lat;lon;timestamp;P1;durP1;ratioP1;P2;durP2;ratioP2
76964;SDS011;65903;51.452;7.198;2023-11-19T00:00:00;4.63;;;4.10;;
76964;SDS011;65903;51.452;7.198;2023-11-19T00:01:00;5.60;;;4.25;;
76964;SDS011;65903;51.452;7.198;2023-11-19T00:02:01;4.47;;;4.05;;
76964;SDS011;65903;51.452;7.198;2023-11-19T00:03:02;5.78;;;4.30;;
76964;SDS011;65903;51.452;7.198;2023-11-19T00:04:03;4.95;;;4.45;;
76964;SDS011;65903;51.452;7.198;2023-11-19T00:05:06;6.32;;;4.18;;
76964;SDS011;65903;51.452;7.198;2023-11-19T00:06:09;5.68;;;4.38;;
76964;SDS011;65903;51.452;7.198;2023-11-19T00:07:11;6.20;;;4.03;;
76964;SDS011;65903;51.452;7.198;2023-11-19T00:09:15;7.10;;;4.32;;
76964;SDS011;65903;51.452;7.198;2023-11-19T00:10:17;4.75;;;4.10;;
76964;SDS011;65903;51.452;7.198;2023-11-19T00:11:21;6.68;;;4.85;;
76964;SDS011;65903;51.452;7.198;2023-11-19T00:12:22;6.15;;;5.10;;
76964;SDS011;65903;51.452;7.198;2023-11-19T00:13:22;6.78;;;4.03;;
76964;SDS011;65903;51.452;7.198;2023-11-19T00:14:24;7.20;;;5.18;;
76964;SDS011;65903;51.452;7.198;2023-11-19T00:15:25;7.00;;;5.18;;
76964;SDS011;65903;51.452;7.198;2023-11-19T00:16:26;8.23;;;5.50;;
76964;SDS011;65903;51.452;7.198;2023-11-19T00:17:27;8.65;;;5.60;;
76964;SDS011;65903;51.452;7.198;2023-11-19T00:18:28;7.30;;;5.75;;
76964;SDS011;65903;51.452;7.198;2023-11-19T00:19:28;7.10;;;5.90;;
76964;SDS011;65903;51.452;7.198;2023-11-19T00:20:29;8.73;;;5.95;;
76964;SDS011;65903;51.452;7.198;2023-11-19T00:21:31;7.53;;;5.60;;
76964;SDS011;65903;51.452;7.198;2023-11-19T00:22:33;10.07;;;5.63;;
76964;SDS011;65903;51.452;7.198;2023-11-19T00:23:34;6.60;;;5.43;;
76964;SDS011;65903;51.452;7.198;2023-11-19T00:24:35;10.32;;;6.05;;
76964;SDS011;65903;51.452;7.198;2023-11-19T00:25:36;9.52;;;6.50;;
76964;SDS011;65903;51.452;7.198;2023-11-19T00:26:39;8.63;;;6.50;;
76964;SDS011;65903;51.452;7.198;2023-11-19T00:27:40;8.88;;;6.70;;
76964;SDS011;65903;51.452;7.198;2023-11-19T00:28:40;7.80;;;6.38;;
76964;SDS011;65903;51.452;7.198;2023-11-19T00:29:41;9.25;;;6.80;;
76964;SDS011;65903;51.452;7.198;2023-11-19T00:30:42;8.82;;;6.35;;
76964;SDS011;65903;51.452;7.198;2023-11-19T00:31:43;7.57;;;6.15;;
76964;SDS011;65903;51.452;7.198;2023-11-19T00:32:45;8.75;;;6.78;;
76964;SDS011;65903;51.452;7.198;2023-11-19T00:33:46;9.30;;;6.30;;
76964;SDS011;65903;51.452;7.198;2023-11-19T00:34:47;9.35;;;6.82;;
76964;SDS011;65903;51.452;7.198;2023-11-19T00:35:47;8.35;;;6.75;;
76964;SDS011;65903;51.452;7.198;2023-11-19T00:36:48;7.82;;;6.75;;
76964;SDS011;65903;51.452;7.198;2023-11-19T00:37:52;8.20;;;5.72;;
76964;SDS011;65903;51.452;7.198;2023-11-19T00:38:54;7.70;;;6.28;;
76964;SDS011;65903;51.452;7.198;2023-11-19T00:39:55;9.98;;;6.10;;
76964;SDS011;65903;51.452;7.198;2023-11-19T00:40:56;9.93;;;6.70;;
76964;SDS011;65903;51.452;7.198;2023-11-19T00:41:57;8.40;;;6.70;;
76964;SDS011;65903;51.452;7.198;2023-11-19T00:42:58;8.30;;;6.57;;
76964;SDS011;65903;51.452;7.198;2023-11-19T00:44:00;11.48;;;7.22;;
76964;SDS011;65903;51.452;7.198;2023-11-19T00:45:01;8.52;;;6.57;;
76964;SDS011;65903;51.452;7.198;2023-11-19T00:46:02;9.73;;;7.22;;
76964;SDS011;65903;51.452;7.198;2023-11-19T00:47:03;12.48;;;7.65;;
76964;SDS011;65903;51.452;7.198;2023-11-19T00:48:05;9.32;;;6.70;;
76964;SDS011;65903;51.452;7.198;2023-11-19T00:49:06;9.45;;;7.18;;
76964;SDS011;65903;51.452;7.198;2023-11-19T00:50:08;9.60;;;7.25;;
76964;SDS011;65903;51.452;7.198;2023-11-19T00:51:12;9.40;;;7.47;;
76964;SDS011;65903;51.452;7.198;2023-11-19T00:52:15;10.23;;;7.40;;
76964;SDS011;65903;51.452;7.198;2023-11-19T00:53:17;9.35;;;7.10;;
76964;SDS011;65903;51.452;7.198;2023-11-19T00:54:18;11.82;;;7.57;;
76964;SDS011;65903;51.452;7.198;2023-11-19T00:55:18;10.13;;;7.18;;
76964;SDS011;65903;51.452;7.198;2023-11-19T00:56:18;10.90;;;7.65;;
76964;SDS011;65903;51.452;7.198;2023-11-19T00:57:20;8.52;;;6.10;;
76964;SDS011;65903;51.452;7.198;2023-11-19T00:58:21;9.45;;;6.72;;
76964;SDS011;65903;51.452;7.198;2023-11-19T00:59:22;9.50;;;7.22;;
76964;SDS011;65903;51.452;7.198;2023-11-19T01:00:23;9.02;;;6.68;;
76964;SDS011;65903;51.452;7.198;2023-11-19T01:01:26;9.27;;;6.93;;
76964;SDS011;65903;51.452;7.198;2023-11-19T01:02:27;8.55;;;6.05;;
76964;SDS011;65903;51.452;7.198;2023-11-19T01:03:28;8.65;;;6.70;;
76964;SDS011;65903;51.452;7.198;2023-11-19T01:04:29;10.40;;;7.43;;
76964;SDS011;65903;51.452;7.198;2023-11-19T01:05:31;12.77;;;7.80;;
76964;SDS011;65903;51.452;7.198;2023-11-19T01:06:32;10.43;;;7.28;;
76964;SDS011;65903;51.452;7.198;2023-11-19T01:07:36;9.70;;;7.20;;
76964;SDS011;65903;51.452;7.198;2023-11-19T01:08:37;11.10;;;7.07;;
76964;SDS011;65903;51.452;7.198;2023-11-19T01:09:38;9.25;;;7.00;;
76964;SDS011;65903;51.452;7.198;2023-11-19T01:10:39;9.93;;;7.25;;
76964;SDS011;65903;51.452;7.198;2023-11-19T01:11:39;6.32;;;5.13;;
76964;SDS011;65903;51.452;7.198;2023-11-19T01:12:40;10.15;;;7.45;;
76964;SDS011;65903;51.452;7.198;2023-11-19T01:13:40;10.13;;;6.93;;
76964;SDS011;65903;51.452;7.198;2023-11-19T01:14:41;10.82;;;7.68;;
76964;SDS011;65903;51.452;7.198;2023-11-19T01:15:41;11.35;;;7.75;;
76964;SDS011;65903;51.452;7.198;2023-11-19T01:16:42;9.02;;;6.97;;
76964;SDS011;65903;51.452;7.198;2023-11-19T01:17:43;9.35;;;7.20;;
76964;SDS011;65903;51.452;7.198;2023-11-19T01:18:46;10.63;;;7.28;;
76964;SDS011;65903;51.452;7.198;2023-11-19T01:19:47;11.05;;;7.47;;
76964;SDS011;65903;51.452;7.198;2023-11-19T01:20:47;8.70;;;6.13;;
76964;SDS011;65903;51.452;7.198;2023-11-19T01:21:48;8.75;;;7.13;;
76964;SDS011;65903;51.452;7.198;2023-11-19T01:22:49;9.07;;;6.53;;
76964;SDS011;65903;51.452;7.198;2023-11-19T01:23:51;8.50;;;6.55;;
76964;SDS011;65903;51.452;7.198;2023-11-19T01:24:52;8.18;;;5.97;;
76964;SDS011;65903;51.452;7.198;2023-11-19T01:25:54;10.88;;;6.43;;
76964;SDS011;65903;51.452;7.198;2023-11-19T01:26:56;8.65;;;6.25;;
76964;SDS011;65903;51.452;7.198;2023-11-19T01:27:58;10.05;;;6.68;;
76964;SDS011;65903;51.452;7.198;2023-11-19T01:28:59;10.25;;;6.78;;
76964;SDS011;65903;51.452;7.198;2023-11-19T01:30:01;7.55;;;5.65;;
76964;SDS011;65903;51.452;7.198;2023-11-19T01:31:06;8.52;;;5.97;;
76964;SDS011;65903;51.452;7.198;2023-11-19T01:32:09;9.55;;;6.60;;
76964;SDS011;65903;51.452;7.198;2023-11-19T01:33:13;8.20;;;6.03;;
76964;SDS011;65903;51.452;7.198;2023-11-19T01:34:14;7.95;;;5.43;;
76964;SDS011;65903;51.452;7.198;2023-11-19T01:35:17;8.43;;;5.82;;
76964;SDS011;65903;51.452;7.198;2023-11-19T01:36:17;7.63;;;4.95;;
76964;SDS011;65903;51.452;7.198;2023-11-19T01:37:21;5.78;;;4.95;;
76964;SDS011;65903;51.452;7.198;2023-11-19T01:38:22;6.43;;;4.57;;
76964;SDS011;65903;51.452;7.198;2023-11-19T01:39:23;6.03;;;4.70;;
76964;SDS011;65903;51.452;7.198;2023-11-19T01:40:23;10.23;;;5.35;;
76964;SDS011;65903;51.452;7.198;2023-11-19T01:41:27;9.25;;;5.53;;
76964;SDS011;65903;51.452;7.198;2023-11-19T01:42:28;5.85;;;4.72;;
76964;SDS011;65903;51.452;7.198;2023-11-19T01:43:31;5.68;;;3.90;;
76964;SDS011;65903;51.452;7.198;2023-11-19T01:44:33;5.82;;;4.30;;
76964;SDS011;65903;51.452;7.198;2023-11-19T01:45:33;5.88;;;3.97;;
76964;SDS011;65903;51.452;7.198;2023-11-19T01:46:34;8.45;;;4.05;;
76964;SDS011;65903;51.452;7.198;2023-11-19T01:47:37;5.70;;;4.13;;
76964;SDS011;65903;51.452;7.198;2023-11-19T01:48:40;6.15;;;4.32;;
76964;SDS011;65903;51.452;7.198;2023-11-19T01:49:43;6.22;;;5.00;;
76964;SDS011;65903;51.452;7.198;2023-11-19T01:50:44;4.38;;;3.42;;
76964;SDS011;65903;51.452;7.198;2023-11-19T01:51:52;5.90;;;3.80;;
76964;SDS011;65903;51.452;7.198;2023-11-19T01:52:53;6.13;;;4.07;;
76964;SDS011;65903;51.452;7.198;2023-11-19T01:53:55;8.10;;;4.60;;
76964;SDS011;65903;51.452;7.198;2023-11-19T01:54:57;8.15;;;4.43;;
76964;SDS011;65903;51.452;7.198;2023-11-19T01:55:58;5.88;;;4.03;;
76964;SDS011;65903;51.452;7.198;2023-11-19T01:56:59;6.13;;;4.18;;
76964;SDS011;65903;51.452;7.198;2023-11-19T01:58:01;8.20;;;4.90;;
76964;SDS011;65903;51.452;7.198;2023-11-19T01:59:03;8.07;;;5.10;;
76964;SDS011;65903;51.452;7.198;2023-11-19T02:00:05;5.47;;;4.00;;
76964;SDS011;65903;51.452;7.198;2023-11-19T02:01:12;6.18;;;4.63;;
76964;SDS011;65903;51.452;7.198;2023-11-19T02:02:13;7.07;;;5.13;;
76964;SDS011;65903;51.452;7.198;2023-11-19T02:03:14;7.65;;;4.82;;
76964;SDS011;65903;51.452;7.198;2023-11-19T02:04:15;4.45;;;3.20;;
76964;SDS011;65903;51.452;7.198;2023-11-19T02:05:16;6.57;;;3.65;;
76964;SDS011;65903;51.452;7.198;2023-11-19T02:06:18;5.20;;;4.38;;
76964;SDS011;65903;51.452;7.198;2023-11-19T02:07:19;7.13;;;4.78;;
76964;SDS011;65903;51.452;7.198;2023-11-19T02:08:20;8.13;;;5.78;;
76964;SDS011;65903;51.452;7.198;2023-11-19T02:09:21;5.75;;;4.63;;
76964;SDS011;65903;51.452;7.198;2023-11-19T02:10:23;7.18;;;4.80;;
76964;SDS011;65903;51.452;7.198;2023-11-19T02:11:26;7.47;;;5.13;;
76964;SDS011;65903;51.452;7.198;2023-11-19T02:12:29;6.95;;;4.40;;
76964;SDS011;65903;51.452;7.198;2023-11-19T02:13:34;7.22;;;5.15;;
76964;SDS011;65903;51.452;7.198;2023-11-19T02:14:38;6.32;;;4.45;;
76964;SDS011;65903;51.452;7.198;2023-11-19T02:15:39;6.32;;;4.60;;
76964;SDS011;65903;51.452;7.198;2023-11-19T02:16:40;7.40;;;5.28;;
76964;SDS011;65903;51.452;7.198;2023-11-19T02:17:41;9.00;;;4.28;;
76964;SDS011;65903;51.452;7.198;2023-11-19T02:18:43;10.85;;;4.63;;
76964;SDS011;65903;51.452;7.198;2023-11-19T02:19:44;6.15;;;4.45;;
76964;SDS011;65903;51.452;7.198;2023-11-19T02:20:45;9.85;;;5.03;;
76964;SDS011;65903;51.452;7.198;2023-11-19T02:21:47;6.88;;;5.10;;
76964;SDS011;65903;51.452;7.198;2023-11-19T02:22:49;6.88;;;4.70;;
76964;SDS011;65903;51.452;7.198;2023-11-19T02:23:53;9.20;;;4.82;;
76964;SDS011;65903;51.452;7.198;2023-11-19T02:24:57;7.72;;;4.82;;
76964;SDS011;65903;51.452;7.198;2023-11-19T02:27:20;8.32;;;4.45;;
76964;SDS011;65903;51.452;7.198;2023-11-19T02:28:43;7.22;;;3.85;;
76964;SDS011;65903;51.452;7.198;2023-11-19T02:29:44;6.60;;;4.18;;
76964;SDS011;65903;51.452;7.198;2023-11-19T02:30:44;7.45;;;3.88;;
76964;SDS011;65903;51.452;7.198;2023-11-19T02:31:45;8.20;;;3.53;;
76964;SDS011;65903;51.452;7.198;2023-11-19T02:32:46;7.57;;;3.83;;
76964;SDS011;65903;51.452;7.198;2023-11-19T02:33:48;5.57;;;3.92;;
76964;SDS011;65903;51.452;7.198;2023-11-19T02:34:50;7.97;;;4.25;;
76964;SDS011;65903;51.452;7.198;2023-11-19T02:35:51;8.07;;;4.38;;
76964;SDS011;65903;51.452;7.198;2023-11-19T02:36:51;5.30;;;3.50;;
76964;SDS011;65903;51.452;7.198;2023-11-19T02:37:54;8.93;;;3.88;;
76964;SDS011;65903;51.452;7.198;2023-11-19T02:38:55;5.13;;;3.20;;
76964;SDS011;65903;51.452;7.198;2023-11-19T02:39:55;8.13;;;4.03;;
76964;SDS011;65903;51.452;7.198;2023-11-19T02:40:56;8.75;;;3.92;;
76964;SDS011;65903;51.452;7.198;2023-11-19T02:41:57;7.75;;;3.58;;
76964;SDS011;65903;51.452;7.198;2023-11-19T02:42:58;6.50;;;3.53;;
76964;SDS011;65903;51.452;7.198;2023-11-19T02:43:59;7.75;;;3.63;;
76964;SDS011;65903;51.452;7.198;2023-11-19T02:45:01;6.35;;;3.40;;
76964;SDS011;65903;51.452;7.198;2023-11-19T02:46:07;8.40;;;4.00;;
76964;SDS011;65903;51.452;7.198;2023-11-19T02:47:07;7.20;;;3.20;;
76964;SDS011;65903;51.452;7.198;2023-11-19T02:48:09;5.93;;;3.13;;
76964;SDS011;65903;51.452;7.198;2023-11-19T02:49:10;9.25;;;3.50;;
76964;SDS011;65903;51.452;7.198;2023-11-19T02:50:11;6.68;;;3.72;;
76964;SDS011;65903;51.452;7.198;2023-11-19T02:51:15;9.00;;;3.25;;
76964;SDS011;65903;51.452;7.198;2023-11-19T02:52:16;5.18;;;3.42;;
76964;SDS011;65903;51.452;7.198;2023-11-19T02:53:17;6.32;;;3.35;;
76964;SDS011;65903;51.452;7.198;2023-11-19T02:54:18;6.65;;;2.97;;
76964;SDS011;65903;51.452;7.198;2023-11-19T02:55:19;7.95;;;3.60;;
76964;SDS011;65903;51.452;7.198;2023-11-19T02:56:21;7.43;;;3.00;;
76964;SDS011;65903;51.452;7.198;2023-11-19T02:58:34;6.60;;;3.30;;
76964;SDS011;65903;51.452;7.198;2023-11-19T02:59:38;9.65;;;3.70;;
76964;SDS011;65903;51.452;7.198;2023-11-19T03:00:43;10.27;;;3.35;;
76964;SDS011;65903;51.452;7.198;2023-11-19T03:01:52;5.80;;;3.38;;
76964;SDS011;65903;51.452;7.198;2023-11-19T03:02:52;10.63;;;3.53;;
76964;SDS011;65903;51.452;7.198;2023-11-19T03:04:00;6.85;;;3.20;;
76964;SDS011;65903;51.452;7.198;2023-11-19T03:05:02;9.85;;;3.45;;
76964;SDS011;65903;51.452;7.198;2023-11-19T03:06:05;6.93;;;3.38;;
76964;SDS011;65903;51.452;7.198;2023-11-19T03:07:06;12.00;;;3.60;;
76964;SDS011;65903;51.452;7.198;2023-11-19T03:08:07;8.52;;;3.65;;
76964;SDS011;65903;51.452;7.198;2023-11-19T03:09:08;7.88;;;3.38;;
76964;SDS011;65903;51.452;7.198;2023-11-19T03:10:11;7.15;;;3.17;;
76964;SDS011;65903;51.452;7.198;2023-11-19T03:11:15;10.48;;;3.78;;
76964;SDS011;65903;51.452;7.198;2023-11-19T03:12:16;9.02;;;3.28;;
76964;SDS011;65903;51.452;7.198;2023-11-19T03:13:17;11.98;;;3.50;;
76964;SDS011;65903;51.452;7.198;2023-11-19T03:14:19;10.20;;;3.85;;
76964;SDS011;65903;51.452;7.198;2023-11-19T03:15:20;8.25;;;3.90;;
76964;SDS011;65903;51.452;7.198;2023-11-19T03:16:21;11.15;;;3.72;;
76964;SDS011;65903;51.452;7.198;2023-11-19T03:17:22;8.15;;;3.60;;
76964;SDS011;65903;51.452;7.198;2023-11-19T03:18:24;7.82;;;2.92;;
76964;SDS011;65903;51.452;7.198;2023-11-19T03:19:25;12.38;;;4.30;;
76964;SDS011;65903;51.452;7.198;2023-11-19T03:20:27;7.82;;;3.58;;
76964;SDS011;65903;51.452;7.198;2023-11-19T03:21:30;10.93;;;3.88;;
76964;SDS011;65903;51.452;7.198;2023-11-19T03:22:32;12.25;;;3.72;;
76964;SDS011;65903;51.452;7.198;2023-11-19T03:23:35;11.15;;;4.00;;
76964;SDS011;65903;51.452;7.198;2023-11-19T03:24:36;8.90;;;3.83;;
76964;SDS011;65903;51.452;7.198;2023-11-19T03:25:37;9.57;;;3.85;;
76964;SDS011;65903;51.452;7.198;2023-11-19T03:26:39;12.75;;;3.85;;
76964;SDS011;65903;51.452;7.198;2023-11-19T03:27:40;10.82;;;4.22;;
76964;SDS011;65903;51.452;7.198;2023-11-19T03:28:42;8.93;;;4.70;;
76964;SDS011;65903;51.452;7.198;2023-11-19T03:29:42;16.17;;;4.38;;
76964;SDS011;65903;51.452;7.198;2023-11-19T03:30:43;10.43;;;4.15;;
76964;SDS011;65903;51.452;7.198;2023-11-19T03:31:44;12.30;;;4.55;;
76964;SDS011;65903;51.452;7.198;2023-11-19T03:32:45;11.48;;;3.90;;
76964;SDS011;65903;51.452;7.198;2023-11-19T03:33:46;12.90;;;4.32;;
76964;SDS011;65903;51.452;7.198;2023-11-19T03:34:47;10.20;;;4.57;;
76964;SDS011;65903;51.452;7.198;2023-11-19T03:35:47;11.07;;;4.28;;
76964;SDS011;65903;51.452;7.198;2023-11-19T03:36:48;13.50;;;4.15;;
76964;SDS011;65903;51.452;7.198;2023-11-19T03:37:49;12.65;;;4.18;;
76964;SDS011;65903;51.452;7.198;2023-11-19T03:38:51;10.55;;;4.25;;
76964;SDS011;65903;51.452;7.198;2023-11-19T03:39:56;9.07;;;3.97;;
76964;SDS011;65903;51.452;7.198;2023-11-19T03:40:59;10.30;;;4.03;;
76964;SDS011;65903;51.452;7.198;2023-11-19T03:42:00;7.20;;;3.80;;
76964;SDS011;65903;51.452;7.198;2023-11-19T03:43:01;6.90;;;3.65;;
76964;SDS011;65903;51.452;7.198;2023-11-19T03:44:02;11.02;;;3.92;;
76964;SDS011;65903;51.452;7.198;2023-11-19T03:45:03;10.82;;;4.03;;
76964;SDS011;65903;51.452;7.198;2023-11-19T03:46:05;15.13;;;4.28;;
76964;SDS011;65903;51.452;7.198;2023-11-19T03:47:21;9.95;;;4.30;;
76964;SDS011;65903;51.452;7.198;2023-11-19T03:48:23;16.45;;;4.22;;
76964;SDS011;65903;51.452;7.198;2023-11-19T03:49:23;10.55;;;4.45;;
76964;SDS011;65903;51.452;7.198;2023-11-19T03:50:24;15.38;;;4.70;;
76964;SDS011;65903;51.452;7.198;2023-11-19T03:51:25;12.65;;;3.90;;
76964;SDS011;65903;51.452;7.198;2023-11-19T03:52:26;13.77;;;4.13;;
76964;SDS011;65903;51.452;7.198;2023-11-19T03:53:27;15.10;;;4.60;;
76964;SDS011;65903;51.452;7.198;2023-11-19T03:54:28;14.00;;;4.60;;
76964;SDS011;65903;51.452;7.198;2023-11-19T03:55:29;21.75;;;4.20;;
76964;SDS011;65903;51.452;7.198;2023-11-19T03:56:30;14.13;;;4.85;;
76964;SDS011;65903;51.452;7.198;2023-11-19T03:57:31;18.02;;;4.30;;
76964;SDS011;65903;51.452;7.198;2023-11-19T03:58:31;11.55;;;5.07;;
76964;SDS011;65903;51.452;7.198;2023-11-19T03:59:33;13.73;;;4.43;;
76964;SDS011;65903;51.452;7.198;2023-11-19T04:00:35;15.02;;;4.70;;
76964;SDS011;65903;51.452;7.198;2023-11-19T04:01:35;13.18;;;4.72;;
76964;SDS011;65903;51.452;7.198;2023-11-19T04:02:37;12.23;;;4.28;;
76964;SDS011;65903;51.452;7.198;2023-11-19T04:03:37;9.45;;;3.70;;
76964;SDS011;65903;51.452;7.198;2023-11-19T04:04:38;15.13;;;4.20;;
76964;SDS011;65903;51.452;7.198;2023-11-19T04:05:41;14.10;;;4.43;;
76964;SDS011;65903;51.452;7.198;2023-11-19T04:06:42;9.68;;;4.22;;
76964;SDS011;65903;51.452;7.198;2023-11-19T04:07:43;18.45;;;4.85;;
76964;SDS011;65903;51.452;7.198;2023-11-19T04:08:43;11.27;;;4.60;;
76964;SDS011;65903;51.452;7.198;2023-11-19T04:09:44;9.52;;;4.05;;
76964;SDS011;65903;51.452;7.198;2023-11-19T04:10:47;8.32;;;3.83;;
76964;SDS011;65903;51.452;7.198;2023-11-19T04:11:48;15.30;;;5.13;;
76964;SDS011;65903;51.452;7.198;2023-11-19T04:12:49;12.02;;;4.38;;
76964;SDS011;65903;51.452;7.198;2023-11-19T04:13:50;14.55;;;4.47;;
76964;SDS011;65903;51.452;7.198;2023-11-19T04:14:51;15.18;;;4.53;;
76964;SDS011;65903;51.452;7.198;2023-11-19T04:15:52;12.75;;;4.18;;
76964;SDS011;65903;51.452;7.198;2023-11-19T04:16:53;10.07;;;3.40;;
76964;SDS011;65903;51.452;7.198;2023-11-19T04:17:53;14.77;;;4.63;;
76964;SDS011;65903;51.452;7.198;2023-11-19T04:18:54;15.15;;;3.70;;
76964;SDS011;65903;51.452;7.198;2023-11-19T04:19:54;14.77;;;4.47;;
76964;SDS011;65903;51.452;7.198;2023-11-19T04:20:56;20.83;;;4.70;;
76964;SDS011;65903;51.452;7.198;2023-11-19T04:21:57;17.15;;;4.20;;
76964;SDS011;65903;51.452;7.198;2023-11-19T04:22:57;15.80;;;4.35;;
76964;SDS011;65903;51.452;7.198;2023-11-19T04:24:00;9.75;;;4.20;;
76964;SDS011;65903;51.452;7.198;2023-11-19T04:25:01;11.27;;;4.07;;
76964;SDS011;65903;51.452;7.198;2023-11-19T04:26:02;15.25;;;4.38;;
76964;SDS011;65903;51.452;7.198;2023-11-19T04:27:04;10.25;;;4.13;;
76964;SDS011;65903;51.452;7.198;2023-11-19T04:28:06;13.70;;;4.45;;
76964;SDS011;65903;51.452;7.198;2023-11-19T04:29:11;16.20;;;4.22;;
76964;SDS011;65903;51.452;7.198;2023-11-19T04:30:13;14.70;;;4.22;;
76964;SDS011;65903;51.452;7.198;2023-11-19T04:31:14;12.18;;;4.38;;
76964;SDS011;65903;51.452;7.198;2023-11-19T04:32:19;14.48;;;4.10;;
76964;SDS011;65903;51.452;7.198;2023-11-19T04:33:20;16.75;;;4.03;;
76964;SDS011;65903;51.452;7.198;2023-11-19T04:34:21;12.68;;;4.18;;
76964;SDS011;65903;51.452;7.198;2023-11-19T04:35:22;11.23;;;4.45;;
76964;SDS011;65903;51.452;7.198;2023-11-19T04:36:23;11.65;;;3.75;;
76964;SDS011;65903;51.452;7.198;2023-11-19T04:37:25;14.10;;;4.22;;
76964;SDS011;65903;51.452;7.198;2023-11-19T04:38:26;13.15;;;4.35;;
76964;SDS011;65903;51.452;7.198;2023-11-19T04:39:27;18.25;;;4.03;;
76964;SDS011;65903;51.452;7.198;2023-11-19T04:40:28;12.50;;;4.15;;
76964;SDS011;65903;51.452;7.198;2023-11-19T04:41:29;20.95;;;4.32;;
76964;SDS011;65903;51.452;7.198;2023-11-19T04:42:30;14.93;;;3.70;;
76964;SDS011;65903;51.452;7.198;2023-11-19T04:43:32;18.85;;;4.25;;
76964;SDS011;65903;51.452;7.198;2023-11-19T04:44:34;13.57;;;4.05;;
76964;SDS011;65903;51.452;7.198;2023-11-19T04:45:34;12.15;;;3.85;;
76964;SDS011;65903;51.452;7.198;2023-11-19T04:46:35;14.65;;;4.57;;
76964;SDS011;65903;51.452;7.198;2023-11-19T04:47:36;12.30;;;3.63;;
76964;SDS011;65903;51.452;7.198;2023-11-19T04:48:36;16.05;;;3.95;;
76964;SDS011;65903;51.452;7.198;2023-11-19T04:49:41;14.93;;;4.95;;
76964;SDS011;65903;51.452;7.198;2023-11-19T04:50:44;12.48;;;3.42;;
76964;SDS011;65903;51.452;7.198;2023-11-19T04:51:48;14.00;;;3.47;;
76964;SDS011;65903;51.452;7.198;2023-11-19T04:52:48;12.43;;;3.38;;
76964;SDS011;65903;51.452;7.198;2023-11-19T04:53:50;15.07;;;4.25;;
76964;SDS011;65903;51.452;7.198;2023-11-19T04:54:51;17.85;;;3.63;;
76964;SDS011;65903;51.452;7.198;2023-11-19T04:55:52;20.67;;;4.20;;
76964;SDS011;65903;51.452;7.198;2023-11-19T04:56:53;11.60;;;4.80;;
76964;SDS011;65903;51.452;7.198;2023-11-19T04:57:54;13.52;;;3.92;;
76964;SDS011;65903;51.452;7.198;2023-11-19T04:58:55;19.38;;;4.38;;
76964;SDS011;65903;51.452;7.198;2023-11-19T04:59:56;10.98;;;3.25;;
76964;SDS011;65903;51.452;7.198;2023-11-19T05:00:57;13.52;;;4.05;;
76964;SDS011;65903;51.452;7.198;2023-11-19T05:01:58;17.23;;;4.15;;
76964;SDS011;65903;51.452;7.198;2023-11-19T05:03:01;11.13;;;3.47;;
76964;SDS011;65903;51.452;7.198;2023-11-19T05:04:03;12.10;;;3.30;;
76964;SDS011;65903;51.452;7.198;2023-11-19T05:05:03;15.27;;;3.90;;
76964;SDS011;65903;51.452;7.198;2023-11-19T05:06:05;15.20;;;3.70;;
76964;SDS011;65903;51.452;7.198;2023-11-19T05:07:06;15.52;;;4.15;;
76964;SDS011;65903;51.452;7.198;2023-11-19T05:08:07;15.02;;;3.88;;
76964;SDS011;65903;51.452;7.198;2023-11-19T05:09:08;18.27;;;4.93;;
76964;SDS011;65903;51.452;7.198;2023-11-19T05:10:09;16.95;;;3.60;;
76964;SDS011;65903;51.452;7.198;2023-11-19T05:11:10;24.95;;;4.32;;
76964;SDS011;65903;51.452;7.198;2023-11-19T05:12:12;16.58;;;3.80;;
76964;SDS011;65903;51.452;7.198;2023-11-19T05:13:12;15.82;;;3.53;;
76964;SDS011;65903;51.452;7.198;2023-11-19T05:14:13;13.45;;;4.43;;
76964;SDS011;65903;51.452;7.198;2023-11-19T05:15:13;19.73;;;3.88;;
76964;SDS011;65903;51.452;7.198;2023-11-19T05:16:14;21.48;;;4.22;;
76964;SDS011;65903;51.452;7.198;2023-11-19T05:17:18;14.25;;;3.45;;
76964;SDS011;65903;51.452;7.198;2023-11-19T05:18:19;20.02;;;5.05;;
76964;SDS011;65903;51.452;7.198;2023-11-19T05:19:20;12.07;;;4.03;;
76964;SDS011;65903;51.452;7.198;2023-11-19T05:20:21;14.43;;;4.47;;
76964;SDS011;65903;51.452;7.198;2023-11-19T05:21:22;11.68;;;4.25;;
76964;SDS011;65903;51.452;7.198;2023-11-19T05:22:24;17.92;;;3.40;;
76964;SDS011;65903;51.452;7.198;2023-11-19T05:23:26;19.23;;;4.63;;
76964;SDS011;65903;51.452;7.198;2023-11-19T05:24:26;23.80;;;4.28;;
76964;SDS011;65903;51.452;7.198;2023-11-19T05:26:30;15.90;;;4.10;;
76964;SDS011;65903;51.452;7.198;2023-11-19T05:27:31;13.52;;;3.33;;
76964;SDS011;65903;51.452;7.198;2023-11-19T05:28:32;17.27;;;4.07;;
76964;SDS011;65903;51.452;7.198;2023-11-19T05:29:33;17.58;;;3.40;;
76964;SDS011;65903;51.452;7.198;2023-11-19T05:30:34;15.88;;;4.40;;
76964;SDS011;65903;51.452;7.198;2023-11-19T05:31:35;19.98;;;4.85;;
76964;SDS011;65903;51.452;7.198;2023-11-19T05:32:36;16.88;;;4.40;;
76964;SDS011;65903;51.452;7.198;2023-11-19T05:33:36;23.55;;;3.80;;
76964;SDS011;65903;51.452;7.198;2023-11-19T05:34:37;19.60;;;4.72;;
76964;SDS011;65903;51.452;7.198;2023-11-19T05:35:37;17.90;;;3.70;;
76964;SDS011;65903;51.452;7.198;2023-11-19T05:36:38;17.45;;;3.90;;
76964;SDS011;65903;51.452;7.198;2023-11-19T05:37:40;14.10;;;3.83;;
76964;SDS011;65903;51.452;7.198;2023-11-19T05:38:41;13.57;;;4.60;;
76964;SDS011;65903;51.452;7.198;2023-11-19T05:39:45;16.20;;;3.50;;
76964;SDS011;65903;51.452;7.198;2023-11-19T05:40:45;14.10;;;4.22;;
76964;SDS011;65903;51.452;7.198;2023-11-19T05:41:48;21.33;;;3.72;;
76964;SDS011;65903;51.452;7.198;2023-11-19T05:42:48;10.48;;;3.95;;
76964;SDS011;65903;51.452;7.198;2023-11-19T05:43:49;13.68;;;3.33;;
76964;SDS011;65903;51.452;7.198;2023-11-19T05:44:51;14.80;;;3.55;;
76964;SDS011;65903;51.452;7.198;2023-11-19T05:45:52;16.08;;;3.70;;
76964;SDS011;65903;51.452;7.198;2023-11-19T05:46:53;19.10;;;3.88;;
76964;SDS011;65903;51.452;7.198;2023-11-19T05:47:54;13.65;;;4.32;;
76964;SDS011;65903;51.452;7.198;2023-11-19T05:48:55;15.90;;;4.03;;
76964;SDS011;65903;51.452;7.198;2023-11-19T05:49:56;15.80;;;3.58;;
76964;SDS011;65903;51.452;7.198;2023-11-19T05:50:57;15.82;;;3.45;;
76964;SDS011;65903;51.452;7.198;2023-11-19T05:52:01;16.40;;;3.63;;
76964;SDS011;65903;51.452;7.198;2023-11-19T05:53:03;16.80;;;3.58;;
76964;SDS011;65903;51.452;7.198;2023-11-19T05:54:07;19.52;;;5.38;;
76964;SDS011;65903;51.452;7.198;2023-11-19T05:55:10;19.55;;;4.63;;
76964;SDS011;65903;51.452;7.198;2023-11-19T05:56:11;14.05;;;3.83;;
76964;SDS011;65903;51.452;7.198;2023-11-19T05:57:12;14.20;;;3.75;;
76964;SDS011;65903;51.452;7.198;2023-11-19T05:58:14;16.20;;;3.20;;
76964;SDS011;65903;51.452;7.198;2023-11-19T05:59:17;16.15;;;3.17;;
76964;SDS011;65903;51.452;7.198;2023-11-19T06:00:18;12.48;;;3.83;;
76964;SDS011;65903;51.452;7.198;2023-11-19T06:01:19;17.55;;;3.75;;
76964;SDS011;65903;51.452;7.198;2023-11-19T06:02:20;12.00;;;2.90;;
76964;SDS011;65903;51.452;7.198;2023-11-19T06:03:21;18.02;;;3.80;;
76964;SDS011;65903;51.452;7.198;2023-11-19T06:04:21;9.32;;;2.83;;
76964;SDS011;65903;51.452;7.198;2023-11-19T06:05:22;19.10;;;4.72;;
76964;SDS011;65903;51.452;7.198;2023-11-19T06:06:23;10.77;;;3.40;;
76964;SDS011;65903;51.452;7.198;2023-11-19T06:07:24;14.30;;;4.03;;
76964;SDS011;65903;51.452;7.198;2023-11-19T06:08:25;14.55;;;3.90;;
76964;SDS011;65903;51.452;7.198;2023-11-19T06:09:28;15.10;;;3.90;;
76964;SDS011;65903;51.452;7.198;2023-11-19T06:10:30;14.45;;;3.80;;
76964;SDS011;65903;51.452;7.198;2023-11-19T06:11:32;12.80;;;3.67;;
76964;SDS011;65903;51.452;7.198;2023-11-19T06:12:34;17.73;;;3.92;;